sensor_id;sensor_type;location;lat;lon;timestamp;P1;durP1;ratioP1;P2;durP2;ratioP2
13071;SDS011;6602;58.934;11.166;2023-04-24T00:01:30;47.37;;;25.93;;
13071;SDS011;6602;58.934;11.166;2023-04-24T00:06:31;44.77;;;25.73;;
13071;SDS011;6602;58.934;11.166;2023-04-24T00:11:35;49.17;;;27.67;;
13071;SDS011;6602;58.934;11.166;2023-04-24T00:16:36;53.73;;;28.63;;
13071;SDS011;6602;58.934;11.166;2023-04-24T00:21:37;49.50;;;28.63;;
13071;SDS011;6602;58.934;11.166;2023-04-24T00:26:38;50.53;;;27.07;;
13071;SDS011;6602;58.934;11.166;2023-04-24T00:31:39;53.37;;;28.43;;
13071;SDS011;6602;58.934;11.166;2023-04-24T00:36:40;51.23;;;29.87;;
13071;SDS011;6602;58.934;11.166;2023-04-24T00:41:41;55.63;;;28.23;;
13071;SDS011;6602;58.934;11.166;2023-04-24T00:46:42;45.93;;;28.33;;
13071;SDS011;6602;58.934;11.166;2023-04-24T00:51:46;50.37;;;28.63;;
13071;SDS011;6602;58.934;11.166;2023-04-24T00:56:49;52.13;;;29.83;;
13071;SDS011;6602;58.934;11.166;2023-04-24T01:01:51;46.47;;;27.77;;
13071;SDS011;6602;58.934;11.166;2023-04-24T01:06:52;49.93;;;29.30;;
13071;SDS011;6602;58.934;11.166;2023-04-24T01:11:56;52.00;;;29.93;;
13071;SDS011;6602;58.934;11.166;2023-04-24T01:17:12;56.23;;;29.83;;
13071;SDS011;6602;58.934;11.166;2023-04-24T01:22:15;56.67;;;29.90;;
13071;SDS011;6602;58.934;11.166;2023-04-24T01:27:17;54.80;;;31.23;;
13071;SDS011;6602;58.934;11.166;2023-04-24T01:32:18;56.70;;;31.97;;
13071;SDS011;6602;58.934;11.166;2023-04-24T01:37:18;55.87;;;32.47;;
13071;SDS011;6602;58.934;11.166;2023-04-24T01:42:22;64.57;;;33.37;;
13071;SDS011;6602;58.934;11.166;2023-04-24T01:47:23;64.00;;;33.13;;
13071;SDS011;6602;58.934;11.166;2023-04-24T01:52:24;54.67;;;31.93;;
13071;SDS011;6602;58.934;11.166;2023-04-24T01:57:32;58.40;;;32.17;;
13071;SDS011;6602;58.934;11.166;2023-04-24T02:02:34;48.17;;;29.50;;
13071;SDS011;6602;58.934;11.166;2023-04-24T02:07:35;59.60;;;32.63;;
13071;SDS011;6602;58.934;11.166;2023-04-24T02:12:36;60.43;;;31.23;;
13071;SDS011;6602;58.934;11.166;2023-04-24T02:17:37;59.97;;;31.80;;
13071;SDS011;6602;58.934;11.166;2023-04-24T02:22:41;59.93;;;31.60;;
13071;SDS011;6602;58.934;11.166;2023-04-24T02:27:42;66.30;;;33.30;;
13071;SDS011;6602;58.934;11.166;2023-04-24T02:32:44;64.40;;;31.97;;
13071;SDS011;6602;58.934;11.166;2023-04-24T02:37:45;61.63;;;31.47;;
13071;SDS011;6602;58.934;11.166;2023-04-24T02:42:45;68.27;;;33.23;;
13071;SDS011;6602;58.934;11.166;2023-04-24T02:47:49;58.60;;;30.90;;
13071;SDS011;6602;58.934;11.166;2023-04-24T02:52:50;60.77;;;31.07;;
13071;SDS011;6602;58.934;11.166;2023-04-24T02:57:51;60.87;;;32.03;;
13071;SDS011;6602;58.934;11.166;2023-04-24T03:02:52;55.43;;;28.27;;
13071;SDS011;6602;58.934;11.166;2023-04-24T03:07:56;60.03;;;29.57;;
13071;SDS011;6602;58.934;11.166;2023-04-24T03:12:57;60.53;;;30.27;;
13071;SDS011;6602;58.934;11.166;2023-04-24T03:17:57;57.43;;;30.23;;
13071;SDS011;6602;58.934;11.166;2023-04-24T03:22:58;59.23;;;31.93;;
13071;SDS011;6602;58.934;11.166;2023-04-24T03:28:00;59.67;;;30.80;;
13071;SDS011;6602;58.934;11.166;2023-04-24T03:33:01;63.70;;;30.33;;
13071;SDS011;6602;58.934;11.166;2023-04-24T03:38:02;53.30;;;29.57;;
13071;SDS011;6602;58.934;11.166;2023-04-24T03:43:07;51.07;;;27.03;;
13071;SDS011;6602;58.934;11.166;2023-04-24T03:48:08;50.37;;;26.47;;
13071;SDS011;6602;58.934;11.166;2023-04-24T03:53:08;52.43;;;27.20;;
13071;SDS011;6602;58.934;11.166;2023-04-24T03:58:09;49.60;;;28.10;;
13071;SDS011;6602;58.934;11.166;2023-04-24T04:03:12;56.43;;;27.67;;
13071;SDS011;6602;58.934;11.166;2023-04-24T04:08:14;49.00;;;27.13;;
13071;SDS011;6602;58.934;11.166;2023-04-24T04:13:16;56.47;;;28.90;;
13071;SDS011;6602;58.934;11.166;2023-04-24T04:18:17;49.90;;;27.67;;
13071;SDS011;6602;58.934;11.166;2023-04-24T04:23:20;54.63;;;28.03;;
13071;SDS011;6602;58.934;11.166;2023-04-24T04:28:21;50.23;;;26.97;;
13071;SDS011;6602;58.934;11.166;2023-04-24T04:33:25;48.83;;;28.13;;
13071;SDS011;6602;58.934;11.166;2023-04-24T04:38:26;49.97;;;27.70;;
13071;SDS011;6602;58.934;11.166;2023-04-24T04:43:30;51.03;;;26.43;;
13071;SDS011;6602;58.934;11.166;2023-04-24T04:48:31;46.97;;;26.23;;
13071;SDS011;6602;58.934;11.166;2023-04-24T04:53:31;47.23;;;26.23;;
13071;SDS011;6602;58.934;11.166;2023-04-24T04:58:32;49.33;;;28.33;;
13071;SDS011;6602;58.934;11.166;2023-04-24T05:03:33;53.00;;;28.90;;
13071;SDS011;6602;58.934;11.166;2023-04-24T05:08:34;52.07;;;27.80;;
13071;SDS011;6602;58.934;11.166;2023-04-24T05:13:35;48.60;;;26.93;;
13071;SDS011;6602;58.934;11.166;2023-04-24T05:18:54;53.60;;;29.03;;
13071;SDS011;6602;58.934;11.166;2023-04-24T05:23:54;56.53;;;27.83;;
13071;SDS011;6602;58.934;11.166;2023-04-24T05:28:55;49.93;;;28.00;;
13071;SDS011;6602;58.934;11.166;2023-04-24T05:33:56;53.63;;;27.90;;
13071;SDS011;6602;58.934;11.166;2023-04-24T05:38:57;51.50;;;26.80;;
13071;SDS011;6602;58.934;11.166;2023-04-24T05:44:05;47.77;;;26.30;;
13071;SDS011;6602;58.934;11.166;2023-04-24T05:49:05;49.03;;;27.97;;
13071;SDS011;6602;58.934;11.166;2023-04-24T05:54:08;48.00;;;25.93;;
13071;SDS011;6602;58.934;11.166;2023-04-24T05:59:12;42.30;;;25.17;;
13071;SDS011;6602;58.934;11.166;2023-04-24T06:04:27;45.30;;;25.53;;
13071;SDS011;6602;58.934;11.166;2023-04-24T06:09:34;48.90;;;25.93;;
13071;SDS011;6602;58.934;11.166;2023-04-24T06:14:35;48.03;;;25.13;;
13071;SDS011;6602;58.934;11.166;2023-04-24T06:19:36;46.10;;;25.27;;
13071;SDS011;6602;58.934;11.166;2023-04-24T06:24:36;40.73;;;23.93;;
13071;SDS011;6602;58.934;11.166;2023-04-24T06:29:49;46.13;;;24.90;;
13071;SDS011;6602;58.934;11.166;2023-04-24T06:34:54;40.30;;;24.17;;
13071;SDS011;6602;58.934;11.166;2023-04-24T06:39:55;46.03;;;23.13;;
13071;SDS011;6602;58.934;11.166;2023-04-24T06:44:55;53.57;;;27.27;;
13071;SDS011;6602;58.934;11.166;2023-04-24T06:49:59;45.80;;;25.07;;
13071;SDS011;6602;58.934;11.166;2023-04-24T06:55:00;45.50;;;24.83;;
13071;SDS011;6602;58.934;11.166;2023-04-24T07:00:03;42.13;;;24.40;;
13071;SDS011;6602;58.934;11.166;2023-04-24T07:05:10;39.17;;;23.43;;
13071;SDS011;6602;58.934;11.166;2023-04-24T07:10:14;40.97;;;23.27;;
13071;SDS011;6602;58.934;11.166;2023-04-24T07:15:15;40.60;;;23.67;;
13071;SDS011;6602;58.934;11.166;2023-04-24T07:20:32;42.67;;;23.60;;
13071;SDS011;6602;58.934;11.166;2023-04-24T07:25:41;37.93;;;22.80;;
13071;SDS011;6602;58.934;11.166;2023-04-24T07:30:42;36.50;;;21.23;;
13071;SDS011;6602;58.934;11.166;2023-04-24T07:35:47;34.97;;;21.60;;
13071;SDS011;6602;58.934;11.166;2023-04-24T07:40:51;35.40;;;20.57;;
13071;SDS011;6602;58.934;11.166;2023-04-24T07:45:52;36.80;;;21.80;;
13071;SDS011;6602;58.934;11.166;2023-04-24T07:50:53;38.67;;;21.63;;
13071;SDS011;6602;58.934;11.166;2023-04-24T07:55:56;38.57;;;21.97;;
13071;SDS011;6602;58.934;11.166;2023-04-24T08:00:57;33.10;;;21.60;;
13071;SDS011;6602;58.934;11.166;2023-04-24T08:05:59;36.40;;;20.90;;
13071;SDS011;6602;58.934;11.166;2023-04-24T08:11:00;36.50;;;22.47;;
13071;SDS011;6602;58.934;11.166;2023-04-24T08:16:00;36.97;;;21.07;;
13071;SDS011;6602;58.934;11.166;2023-04-24T08:21:01;34.57;;;21.67;;
13071;SDS011;6602;58.934;11.166;2023-04-24T08:26:02;32.80;;;20.30;;
13071;SDS011;6602;58.934;11.166;2023-04-24T08:31:03;33.13;;;21.43;;
13071;SDS011;6602;58.934;11.166;2023-04-24T08:36:07;30.67;;;20.03;;
13071;SDS011;6602;58.934;11.166;2023-04-24T08:41:08;33.23;;;21.00;;
13071;SDS011;6602;58.934;11.166;2023-04-24T08:46:13;32.10;;;21.03;;
13071;SDS011;6602;58.934;11.166;2023-04-24T08:51:15;29.63;;;19.83;;
13071;SDS011;6602;58.934;11.166;2023-04-24T08:56:21;28.23;;;18.77;;
13071;SDS011;6602;58.934;11.166;2023-04-24T09:01:26;32.03;;;20.43;;
13071;SDS011;6602;58.934;11.166;2023-04-24T09:06:29;28.43;;;18.90;;
13071;SDS011;6602;58.934;11.166;2023-04-24T09:11:32;28.83;;;17.57;;
13071;SDS011;6602;58.934;11.166;2023-04-24T09:16:36;23.67;;;16.93;;
13071;SDS011;6602;58.934;11.166;2023-04-24T09:21:37;27.30;;;18.23;;
13071;SDS011;6602;58.934;11.166;2023-04-24T09:26:38;24.53;;;16.63;;
13071;SDS011;6602;58.934;11.166;2023-04-24T09:31:40;24.17;;;17.37;;
13071;SDS011;6602;58.934;11.166;2023-04-24T09:36:43;26.73;;;18.17;;
13071;SDS011;6602;58.934;11.166;2023-04-24T09:41:52;28.50;;;17.80;;
13071;SDS011;6602;58.934;11.166;2023-04-24T09:46:59;26.83;;;18.07;;
13071;SDS011;6602;58.934;11.166;2023-04-24T09:52:04;30.97;;;18.87;;
13071;SDS011;6602;58.934;11.166;2023-04-24T09:57:07;28.83;;;17.73;;
13071;SDS011;6602;58.934;11.166;2023-04-24T10:02:19;24.23;;;16.63;;
13071;SDS011;6602;58.934;11.166;2023-04-24T10:07:20;23.47;;;16.00;;
13071;SDS011;6602;58.934;11.166;2023-04-24T10:12:21;24.63;;;16.20;;
13071;SDS011;6602;58.934;11.166;2023-04-24T10:17:25;24.57;;;16.90;;
13071;SDS011;6602;58.934;11.166;2023-04-24T10:22:27;21.73;;;15.30;;
13071;SDS011;6602;58.934;11.166;2023-04-24T10:27:31;22.53;;;15.37;;
13071;SDS011;6602;58.934;11.166;2023-04-24T10:32:32;22.70;;;15.67;;
13071;SDS011;6602;58.934;11.166;2023-04-24T10:37:40;21.23;;;14.67;;
13071;SDS011;6602;58.934;11.166;2023-04-24T10:42:47;19.87;;;14.23;;
13071;SDS011;6602;58.934;11.166;2023-04-24T10:53:06;24.43;;;15.40;;
13071;SDS011;6602;58.934;11.166;2023-04-24T10:58:12;20.77;;;14.93;;
13071;SDS011;6602;58.934;11.166;2023-04-24T11:03:23;23.33;;;14.83;;
13071;SDS011;6602;58.934;11.166;2023-04-24T11:08:29;21.13;;;14.27;;
13071;SDS011;6602;58.934;11.166;2023-04-24T11:19:04;20.90;;;14.47;;
13071;SDS011;6602;58.934;11.166;2023-04-24T11:24:23;18.87;;;13.10;;
13071;SDS011;6602;58.934;11.166;2023-04-24T11:34:47;18.63;;;12.57;;
13071;SDS011;6602;58.934;11.166;2023-04-24T11:39:54;18.87;;;12.90;;
13071;SDS011;6602;58.934;11.166;2023-04-24T11:45:00;21.17;;;13.30;;
13071;SDS011;6602;58.934;11.166;2023-04-24T11:50:05;16.60;;;11.60;;
13071;SDS011;6602;58.934;11.166;2023-04-24T12:00:18;18.20;;;13.20;;
13071;SDS011;6602;58.934;11.166;2023-04-24T12:05:39;17.33;;;11.57;;
13071;SDS011;6602;58.934;11.166;2023-04-24T12:10:40;16.87;;;11.53;;
13071;SDS011;6602;58.934;11.166;2023-04-24T12:15:47;18.50;;;13.30;;
13071;SDS011;6602;58.934;11.166;2023-04-24T12:20:50;16.73;;;11.47;;
13071;SDS011;6602;58.934;11.166;2023-04-24T12:25:59;17.60;;;12.60;;
13071;SDS011;6602;58.934;11.166;2023-04-24T12:31:01;18.43;;;12.93;;
13071;SDS011;6602;58.934;11.166;2023-04-24T12:36:11;18.53;;;12.70;;
13071;SDS011;6602;58.934;11.166;2023-04-24T12:41:15;19.70;;;13.03;;
13071;SDS011;6602;58.934;11.166;2023-04-24T12:46:16;22.60;;;13.87;;
13071;SDS011;6602;58.934;11.166;2023-04-24T12:51:19;15.73;;;11.37;;
13071;SDS011;6602;58.934;11.166;2023-04-24T12:56:20;16.53;;;11.50;;
13071;SDS011;6602;58.934;11.166;2023-04-24T13:01:26;16.83;;;11.57;;
13071;SDS011;6602;58.934;11.166;2023-04-24T13:06:27;19.07;;;11.73;;
13071;SDS011;6602;58.934;11.166;2023-04-24T13:11:34;15.10;;;10.93;;
13071;SDS011;6602;58.934;11.166;2023-04-24T13:16:37;17.47;;;11.23;;
13071;SDS011;6602;58.934;11.166;2023-04-24T13:21:39;14.50;;;11.37;;
13071;SDS011;6602;58.934;11.166;2023-04-24T13:26:49;16.23;;;10.87;;
13071;SDS011;6602;58.934;11.166;2023-04-24T13:31:53;18.37;;;10.70;;
13071;SDS011;6602;58.934;11.166;2023-04-24T13:36:57;18.87;;;9.73;;
13071;SDS011;6602;58.934;11.166;2023-04-24T13:41:58;16.80;;;9.93;;
13071;SDS011;6602;58.934;11.166;2023-04-24T13:46:59;13.90;;;10.50;;
13071;SDS011;6602;58.934;11.166;2023-04-24T13:52:03;13.53;;;9.23;;
13071;SDS011;6602;58.934;11.166;2023-04-24T13:57:06;16.20;;;10.70;;
13071;SDS011;6602;58.934;11.166;2023-04-24T14:02:07;13.23;;;9.33;;
13071;SDS011;6602;58.934;11.166;2023-04-24T14:07:08;16.33;;;9.40;;
13071;SDS011;6602;58.934;11.166;2023-04-24T14:12:09;16.83;;;11.03;;
13071;SDS011;6602;58.934;11.166;2023-04-24T14:17:12;14.77;;;10.63;;
13071;SDS011;6602;58.934;11.166;2023-04-24T14:22:16;20.23;;;13.03;;
13071;SDS011;6602;58.934;11.166;2023-04-24T14:27:20;18.23;;;12.60;;
13071;SDS011;6602;58.934;11.166;2023-04-24T14:32:21;14.90;;;11.57;;
13071;SDS011;6602;58.934;11.166;2023-04-24T14:37:21;16.30;;;12.33;;
13071;SDS011;6602;58.934;11.166;2023-04-24T14:42:22;16.13;;;11.13;;
13071;SDS011;6602;58.934;11.166;2023-04-24T14:47:23;21.97;;;13.47;;
13071;SDS011;6602;58.934;11.166;2023-04-24T14:52:27;17.97;;;13.00;;
13071;SDS011;6602;58.934;11.166;2023-04-24T14:57:27;15.80;;;11.53;;
13071;SDS011;6602;58.934;11.166;2023-04-24T15:02:34;19.13;;;13.40;;
13071;SDS011;6602;58.934;11.166;2023-04-24T15:07:39;19.03;;;13.00;;
13071;SDS011;6602;58.934;11.166;2023-04-24T15:12:50;24.73;;;16.37;;
13071;SDS011;6602;58.934;11.166;2023-04-24T15:17:51;21.23;;;15.10;;
13071;SDS011;6602;58.934;11.166;2023-04-24T15:22:52;23.93;;;16.40;;
13071;SDS011;6602;58.934;11.166;2023-04-24T15:27:53;20.97;;;14.67;;
13071;SDS011;6602;58.934;11.166;2023-04-24T15:32:55;22.53;;;16.53;;
13071;SDS011;6602;58.934;11.166;2023-04-24T15:37:56;26.63;;;17.87;;
13071;SDS011;6602;58.934;11.166;2023-04-24T15:42:57;27.63;;;17.40;;
13071;SDS011;6602;58.934;11.166;2023-04-24T15:48:00;23.63;;;15.70;;
13071;SDS011;6602;58.934;11.166;2023-04-24T15:53:04;25.53;;;17.43;;
13071;SDS011;6602;58.934;11.166;2023-04-24T15:58:08;25.93;;;17.03;;
13071;SDS011;6602;58.934;11.166;2023-04-24T16:03:09;23.17;;;15.57;;
13071;SDS011;6602;58.934;11.166;2023-04-24T16:08:09;29.13;;;17.27;;
13071;SDS011;6602;58.934;11.166;2023-04-24T16:13:16;22.17;;;16.67;;
13071;SDS011;6602;58.934;11.166;2023-04-24T16:18:18;29.03;;;17.23;;
13071;SDS011;6602;58.934;11.166;2023-04-24T16:23:20;25.73;;;18.17;;
13071;SDS011;6602;58.934;11.166;2023-04-24T16:28:21;26.10;;;18.23;;
13071;SDS011;6602;58.934;11.166;2023-04-24T16:33:22;26.43;;;18.57;;
13071;SDS011;6602;58.934;11.166;2023-04-24T16:38:25;27.33;;;17.97;;
13071;SDS011;6602;58.934;11.166;2023-04-24T16:43:41;32.50;;;18.03;;
13071;SDS011;6602;58.934;11.166;2023-04-24T16:48:42;26.13;;;17.47;;
13071;SDS011;6602;58.934;11.166;2023-04-24T16:53:43;26.97;;;19.10;;
13071;SDS011;6602;58.934;11.166;2023-04-24T16:58:45;30.03;;;19.17;;
13071;SDS011;6602;58.934;11.166;2023-04-24T17:04:00;29.53;;;20.10;;
13071;SDS011;6602;58.934;11.166;2023-04-24T17:09:01;29.00;;;20.20;;
13071;SDS011;6602;58.934;11.166;2023-04-24T17:14:03;31.37;;;19.30;;
13071;SDS011;6602;58.934;11.166;2023-04-24T17:19:05;30.77;;;19.40;;
13071;SDS011;6602;58.934;11.166;2023-04-24T17:24:06;31.87;;;19.87;;
13071;SDS011;6602;58.934;11.166;2023-04-24T17:29:07;29.57;;;20.27;;
13071;SDS011;6602;58.934;11.166;2023-04-24T17:34:08;29.77;;;19.27;;
13071;SDS011;6602;58.934;11.166;2023-04-24T17:39:09;30.13;;;19.17;;
13071;SDS011;6602;58.934;11.166;2023-04-24T17:44:10;29.60;;;19.50;;
13071;SDS011;6602;58.934;11.166;2023-04-24T17:49:11;30.97;;;20.80;;
13071;SDS011;6602;58.934;11.166;2023-04-24T17:54:12;31.00;;;20.73;;
13071;SDS011;6602;58.934;11.166;2023-04-24T17:59:16;31.93;;;19.93;;
13071;SDS011;6602;58.934;11.166;2023-04-24T18:04:18;35.20;;;21.83;;
13071;SDS011;6602;58.934;11.166;2023-04-24T18:09:19;29.67;;;19.80;;
13071;SDS011;6602;58.934;11.166;2023-04-24T18:14:20;26.80;;;17.80;;
13071;SDS011;6602;58.934;11.166;2023-04-24T18:19:22;29.53;;;18.70;;
13071;SDS011;6602;58.934;11.166;2023-04-24T18:24:23;27.90;;;17.63;;
13071;SDS011;6602;58.934;11.166;2023-04-24T18:29:24;26.60;;;17.07;;
13071;SDS011;6602;58.934;11.166;2023-04-24T18:34:25;22.23;;;16.23;;
13071;SDS011;6602;58.934;11.166;2023-04-24T18:39:27;24.13;;;16.90;;
13071;SDS011;6602;58.934;11.166;2023-04-24T18:44:27;21.40;;;14.10;;
13071;SDS011;6602;58.934;11.166;2023-04-24T18:49:28;21.77;;;15.07;;
13071;SDS011;6602;58.934;11.166;2023-04-24T18:54:30;21.77;;;15.30;;
13071;SDS011;6602;58.934;11.166;2023-04-24T18:59:31;19.90;;;13.97;;
13071;SDS011;6602;58.934;11.166;2023-04-24T19:04:33;18.87;;;13.53;;
13071;SDS011;6602;58.934;11.166;2023-04-24T19:09:34;18.63;;;14.10;;
13071;SDS011;6602;58.934;11.166;2023-04-24T19:14:36;16.43;;;12.57;;
13071;SDS011;6602;58.934;11.166;2023-04-24T19:19:37;23.20;;;15.83;;
13071;SDS011;6602;58.934;11.166;2023-04-24T19:24:38;20.93;;;14.80;;
13071;SDS011;6602;58.934;11.166;2023-04-24T19:29:45;18.97;;;14.50;;
13071;SDS011;6602;58.934;11.166;2023-04-24T19:34:47;23.87;;;13.87;;
13071;SDS011;6602;58.934;11.166;2023-04-24T19:39:48;21.73;;;14.50;;
13071;SDS011;6602;58.934;11.166;2023-04-24T19:44:49;21.67;;;14.77;;
13071;SDS011;6602;58.934;11.166;2023-04-24T19:49:50;19.53;;;13.87;;
13071;SDS011;6602;58.934;11.166;2023-04-24T19:54:51;21.77;;;14.53;;
13071;SDS011;6602;58.934;11.166;2023-04-24T19:59:52;20.27;;;13.70;;
13071;SDS011;6602;58.934;11.166;2023-04-24T20:04:54;23.10;;;15.67;;
13071;SDS011;6602;58.934;11.166;2023-04-24T20:09:55;21.40;;;15.47;;
13071;SDS011;6602;58.934;11.166;2023-04-24T20:14:56;20.63;;;14.77;;
13071;SDS011;6602;58.934;11.166;2023-04-24T20:19:57;20.73;;;14.97;;
13071;SDS011;6602;58.934;11.166;2023-04-24T20:24:58;21.97;;;14.37;;
13071;SDS011;6602;58.934;11.166;2023-04-24T20:30:05;22.67;;;14.50;;
13071;SDS011;6602;58.934;11.166;2023-04-24T20:35:12;19.37;;;13.77;;
13071;SDS011;6602;58.934;11.166;2023-04-24T20:40:13;21.83;;;14.57;;
13071;SDS011;6602;58.934;11.166;2023-04-24T20:45:14;21.50;;;14.57;;
13071;SDS011;6602;58.934;11.166;2023-04-24T20:50:17;19.50;;;13.03;;
13071;SDS011;6602;58.934;11.166;2023-04-24T20:55:19;19.90;;;13.27;;
13071;SDS011;6602;58.934;11.166;2023-04-24T21:00:22;18.43;;;13.17;;
13071;SDS011;6602;58.934;11.166;2023-04-24T21:05:25;20.13;;;13.80;;
13071;SDS011;6602;58.934;11.166;2023-04-24T21:10:26;18.00;;;12.27;;
13071;SDS011;6602;58.934;11.166;2023-04-24T21:15:27;16.63;;;12.20;;
13071;SDS011;6602;58.934;11.166;2023-04-24T21:20:28;17.73;;;12.63;;
13071;SDS011;6602;58.934;11.166;2023-04-24T21:25:29;16.47;;;12.80;;
13071;SDS011;6602;58.934;11.166;2023-04-24T21:30:34;15.47;;;11.80;;
13071;SDS011;6602;58.934;11.166;2023-04-24T21:35:35;17.37;;;11.27;;
13071;SDS011;6602;58.934;11.166;2023-04-24T21:40:36;17.67;;;11.03;;
13071;SDS011;6602;58.934;11.166;2023-04-24T21:45:37;14.37;;;10.60;;
13071;SDS011;6602;58.934;11.166;2023-04-24T21:50:41;15.50;;;10.43;;
13071;SDS011;6602;58.934;11.166;2023-04-24T21:55:41;14.83;;;9.83;;
13071;SDS011;6602;58.934;11.166;2023-04-24T22:00:51;12.90;;;9.67;;
13071;SDS011;6602;58.934;11.166;2023-04-24T22:05:55;12.73;;;9.10;;
13071;SDS011;6602;58.934;11.166;2023-04-24T22:10:57;12.47;;;9.33;;
13071;SDS011;6602;58.934;11.166;2023-04-24T22:16:01;13.03;;;9.27;;
13071;SDS011;6602;58.934;11.166;2023-04-24T22:21:02;14.03;;;9.13;;
13071;SDS011;6602;58.934;11.166;2023-04-24T22:26:03;11.17;;;9.03;;
13071;SDS011;6602;58.934;11.166;2023-04-24T22:31:05;14.50;;;8.23;;
13071;SDS011;6602;58.934;11.166;2023-04-24T22:36:06;11.77;;;9.20;;
13071;SDS011;6602;58.934;11.166;2023-04-24T22:41:10;10.10;;;7.87;;
13071;SDS011;6602;58.934;11.166;2023-04-24T22:46:12;10.87;;;8.43;;
13071;SDS011;6602;58.934;11.166;2023-04-24T22:51:13;12.40;;;8.80;;
13071;SDS011;6602;58.934;11.166;2023-04-24T22:56:14;12.57;;;8.83;;
13071;SDS011;6602;58.934;11.166;2023-04-24T23:01:15;11.63;;;9.00;;
13071;SDS011;6602;58.934;11.166;2023-04-24T23:06:20;12.97;;;8.90;;
13071;SDS011;6602;58.934;11.166;2023-04-24T23:11:21;11.00;;;9.03;;
13071;SDS011;6602;58.934;11.166;2023-04-24T23:16:25;11.47;;;8.77;;
13071;SDS011;6602;58.934;11.166;2023-04-24T23:21:26;10.23;;;8.50;;
13071;SDS011;6602;58.934;11.166;2023-04-24T23:26:27;10.80;;;8.43;;
13071;SDS011;6602;58.934;11.166;2023-04-24T23:31:29;12.27;;;8.27;;
13071;SDS011;6602;58.934;11.166;2023-04-24T23:36:30;9.90;;;8.20;;
13071;SDS011;6602;58.934;11.166;2023-04-24T23:41:34;9.37;;;8.07;;
13071;SDS011;6602;58.934;11.166;2023-04-24T23:46:39;10.70;;;7.93;;
13071;SDS011;6602;58.934;11.166;2023-04-24T23:51:43;10.77;;;7.47;;
13071;SDS011;6602;58.934;11.166;2023-04-24T23:56:45;9.67;;;7.80;;
